KATW/ATW METAR and TAF weather

Enter ICAO airport designator
Station Type Date Time Source
KATW METAR 2021/04/13 22:45 UTC NOAA

KATW 132245Z 28009KT 10SM OVC042 06/M04 A3001


Station Type Date Time Source
KATW Decoded METAR 2021/04/13 22:45 UTC NOAA

Appleton / Outagamie, WI, United States (KATW) 44-15N 088-31W
Apr 13, 2021 - 06:45 PM EDT / 2021.04.13 2245 UTC
Wind: from the W (280 degrees) at 10 MPH (9 KT):0
Visibility: 10 mile(s):0
Sky conditions: overcast
Temperature: 42 F (6 C)
Dew Point: 24 F (-4 C)
Relative Humidity: 48%
Pressure (altimeter): 30.01 in. Hg (1016 hPa)
ob: KATW 132245Z 28009KT 10SM OVC042 06/M04 A3001
cycle: 23

Station Type Date Time Source
KATW TAF 2021/04/13 18:33 UTC NOAA

TAF KATW 131730Z 1318/1418 25012G19KT P6SM OVC035
FM140200 27006KT P6SM BKN040
FM140600 26005KT P6SM -SHRASN BKN045
FM141500 29009KT P6SM OVC027

Example: see airport list